createdAt,value
2022-08-20T00:02:55.193Z,100297.56
2022-08-20T00:06:03.362Z,100299.66
2022-08-20T00:09:04.797Z,100308.19
2022-08-20T00:12:06.830Z,100310.41
2022-08-20T00:15:08.437Z,100309.22
2022-08-20T00:18:10.458Z,100311.44
2022-08-20T00:21:18.720Z,100309.50
2022-08-20T00:24:20.838Z,100317.75
2022-08-20T00:27:22.284Z,100319.22
2022-08-20T00:30:26.642Z,100311.66
2022-08-20T00:33:28.196Z,100319.50
2022-08-20T00:36:32.892Z,100318.97
2022-08-20T00:39:35.095Z,100326.47
2022-08-20T00:42:58.221Z,100331.94
2022-08-20T00:46:02.571Z,100326.91
2022-08-20T00:49:07.842Z,100333.13
2022-08-20T00:52:14.139Z,100327.88
2022-08-20T00:55:17.974Z,100326.22
2022-08-20T00:58:19.737Z,100335.38
2022-08-20T01:01:22.862Z,100339.41
2022-08-20T01:04:26.475Z,100338.56
2022-08-20T01:07:34.756Z,100341.41
2022-08-20T01:10:39.042Z,100341.91
2022-08-20T01:13:41.092Z,100343.25
2022-08-20T01:16:44.802Z,100345.09
2022-08-20T01:19:57.933Z,100337.63
2022-08-20T01:23:32.477Z,100345.78
2022-08-20T01:26:43.874Z,100345.78
2022-08-20T01:29:45.696Z,100349.47
2022-08-20T01:32:47.232Z,100351.78
2022-08-20T01:35:50.212Z,100349.22
2022-08-20T01:38:54.586Z,100350.44
2022-08-20T01:42:24.125Z,100351.66
2022-08-20T01:45:27.951Z,100354.22
2022-08-20T01:48:32.002Z,100353.63
2022-08-20T01:51:33.434Z,100353.34
2022-08-20T01:54:35.546Z,100356.88
2022-08-20T01:57:37.779Z,100358.47
2022-08-20T02:00:39.274Z,100356.53
2022-08-20T02:03:44.630Z,100360.22
2022-08-20T02:06:56.262Z,100362.41
2022-08-20T02:09:59.675Z,100362.03
2022-08-20T02:13:01.865Z,100373.75
2022-08-20T02:16:05.864Z,100371.69
2022-08-20T02:19:13.262Z,100381.34
2022-08-20T02:22:27.030Z,100380.94
2022-08-20T02:25:31.435Z,100378.63
2022-08-20T02:28:34.366Z,100374.63
2022-08-20T02:31:36.379Z,100381.56
2022-08-20T02:34:45.832Z,100372.53
2022-08-20T02:37:47.435Z,100372.91
2022-08-20T02:40:49.939Z,100380.47
2022-08-20T02:43:51.460Z,100375.69
2022-08-20T02:46:52.932Z,100371.19
2022-08-20T02:49:55.116Z,100376.56
2022-08-20T02:52:56.576Z,100379.72
2022-08-20T02:55:59.027Z,100368.97
2022-08-20T02:59:00.509Z,100374.25
2022-08-20T03:02:02.177Z,100377.91
2022-08-20T03:05:04.576Z,100378.28
2022-08-20T03:08:08.972Z,100378.75
2022-08-20T03:11:10.713Z,100381.44
2022-08-20T03:14:12.128Z,100368.38
2022-08-20T03:17:13.600Z,100371.44
2022-08-20T03:20:15.831Z,100378.00
2022-08-20T03:23:19.166Z,100379.72
2022-08-20T03:26:20.629Z,100379.34
2022-08-20T03:29:22.070Z,100376.44
2022-08-20T03:32:23.624Z,100368.25
2022-08-20T03:35:29.734Z,100372.44
2022-08-20T03:38:33.134Z,100374.25
2022-08-20T03:41:34.955Z,100377.78
2022-08-20T03:44:36.582Z,100375.09
2022-08-20T03:47:39.406Z,100368.97
2022-08-20T03:50:41.724Z,100367.53
2022-08-20T03:53:43.163Z,100371.91
2022-08-20T03:56:44.605Z,100373.13
2022-08-20T03:59:46.040Z,100381.94
2022-08-20T04:02:51.269Z,100375.59
2022-08-20T04:05:53.285Z,100373.50
2022-08-20T04:08:55.707Z,100369.75
2022-08-20T04:12:00.127Z,100375.31
2022-08-20T04:15:02.087Z,100373.47
2022-08-20T04:18:07.666Z,100375.59
2022-08-20T04:21:09.213Z,100369.75
2022-08-20T04:24:31.107Z,100365.56
2022-08-20T04:27:35.189Z,100371.28
2022-08-20T04:30:36.951Z,100370.69
2022-08-20T04:33:38.369Z,100371.78
2022-08-20T04:36:40.683Z,100373.00
2022-08-20T04:39:42.138Z,100376.06
2022-08-20T04:42:43.623Z,100381.16
2022-08-20T04:45:45.757Z,100392.28
2022-08-20T04:48:48.513Z,100400.44
2022-08-20T04:51:50.790Z,100400.44
2022-08-20T04:54:52.221Z,100397.63
2022-08-20T04:57:54.668Z,100403.84
2022-08-20T05:01:01.208Z,100405.09
2022-08-20T05:04:03.302Z,100399.72
2022-08-20T05:07:04.709Z,100401.56
2022-08-20T05:10:08.020Z,100394.38
2022-08-20T05:13:10.535Z,100403.88
2022-08-20T05:16:13.046Z,100407.53
2022-08-20T05:19:14.550Z,100406.66
2022-08-20T05:22:16.510Z,100410.97
2022-08-20T05:25:18.058Z,100407.50
2022-08-20T05:28:25.021Z,100414.41
2022-08-20T05:31:32.749Z,100425.72
2022-08-20T05:34:34.727Z,100424.97
2022-08-20T05:37:38.336Z,100426.31
2022-08-20T05:40:41.842Z,100430.34
2022-08-20T05:43:43.465Z,100431.66
2022-08-20T05:46:47.246Z,100432.19
2022-08-20T05:49:48.658Z,100435.13
2022-08-20T05:52:50.733Z,100442.56
2022-08-20T05:55:53.022Z,100445.25
2022-08-20T05:58:54.437Z,100448.16
2022-08-20T06:01:55.893Z,100449.75
2022-08-20T06:04:57.624Z,100453.13
2022-08-20T06:08:07.330Z,100441.94
2022-08-20T06:11:09.506Z,100444.88
2022-08-20T06:14:11.068Z,100435.72
2022-08-20T06:17:16.455Z,100432.69
2022-08-20T06:20:18.469Z,100437.78
2022-08-20T06:23:20.625Z,100436.06
2022-08-20T06:26:24.234Z,100437.88
2022-08-20T06:29:34.904Z,100441.66
2022-08-20T06:32:36.608Z,100438.59
2022-08-20T06:35:38.046Z,100440.44
2022-08-20T06:38:40.025Z,100442.53
2022-08-20T06:41:42.298Z,100445.41
2022-08-20T06:44:48.392Z,100439.81
2022-08-20T06:47:51.222Z,100448.34
2022-08-20T06:50:53.227Z,100445.81
2022-08-20T06:53:54.775Z,100460.47
2022-08-20T06:56:56.901Z,100461.44
2022-08-20T06:59:58.405Z,100463.50
2022-08-20T07:03:01.112Z,100459.19
2022-08-20T07:06:02.552Z,100460.81
2022-08-20T07:09:04.216Z,100464.53
2022-08-20T07:12:06.639Z,100467.97
2022-08-20T07:15:11.293Z,100460.88
2022-08-20T07:18:14.145Z,100469.72
2022-08-20T07:21:17.338Z,100469.91
2022-08-20T07:24:19.221Z,100470.91
2022-08-20T07:27:22.527Z,100471.63
2022-08-20T07:30:55.935Z,100480.31
2022-08-20T07:33:59.807Z,100475.53
2022-08-20T07:37:01.358Z,100475.56
2022-08-20T07:40:03.517Z,100478.50
2022-08-20T07:43:04.955Z,100483.88
2022-08-20T07:46:09.276Z,100483.66
2022-08-20T07:49:11.306Z,100488.53
2022-08-20T07:52:13.221Z,100486.50
2022-08-20T07:55:16.437Z,100492.41
2022-08-20T07:58:21.294Z,100494.84
2022-08-20T08:01:30.924Z,100490.78
2022-08-20T08:04:32.575Z,100485.81
2022-08-20T08:07:34.982Z,100483.00
2022-08-20T08:10:41.243Z,100495.59
2022-08-20T08:13:43.371Z,100501.38
2022-08-20T08:16:45.715Z,100496.69
2022-08-20T08:19:49.900Z,100502.91
2022-08-20T08:22:52.411Z,100493.59
2022-08-20T08:25:54.034Z,100498.75
2022-08-20T08:28:55.688Z,100500.09
2022-08-20T08:31:57.121Z,100498.28
2022-08-20T08:35:02.840Z,100506.34
2022-08-20T08:38:04.318Z,100503.34
2022-08-20T08:41:32.113Z,100500.78
2022-08-20T08:44:41.371Z,100502.31
2022-08-20T08:47:44.570Z,100498.00
2022-08-20T08:50:53.989Z,100508.00
2022-08-20T08:53:57.079Z,100506.81
2022-08-20T08:56:59.606Z,100498.47
2022-08-20T09:00:16.297Z,100501.34
2022-08-20T09:03:25.886Z,100505.22
2022-08-20T09:06:28.161Z,100503.47
2022-08-20T09:09:32.801Z,100505.25
2022-08-20T09:12:34.262Z,100509.31
2022-08-20T09:15:35.677Z,100496.84
2022-08-20T09:18:37.096Z,100503.88
2022-08-20T09:21:38.563Z,100499.19
2022-08-20T09:24:40.412Z,100496.59
2022-08-20T09:27:42.083Z,100499.38
2022-08-20T09:30:45.242Z,100497.66
2022-08-20T09:33:47.854Z,100495.53
2022-08-20T09:36:49.292Z,100499.81
2022-08-20T09:39:50.981Z,100487.13
2022-08-20T09:42:52.615Z,100484.78
2022-08-20T09:45:54.119Z,100480.59
2022-08-20T09:48:55.601Z,100483.19
2022-08-20T09:51:58.682Z,100479.97
2022-08-20T09:55:15.199Z,100480.56
2022-08-20T09:58:38.105Z,100478.34
2022-08-20T10:01:40.236Z,100480.50
2022-08-20T10:04:41.673Z,100481.13
2022-08-20T10:07:43.592Z,100484.78
2022-08-20T10:10:45.047Z,100491.84
2022-08-20T10:13:46.524Z,100489.13
2022-08-20T10:16:55.572Z,100489.13
2022-08-20T10:20:00.680Z,100484.16
2022-08-20T10:23:03.392Z,100484.59
2022-08-20T10:26:04.989Z,100484.31
2022-08-20T10:29:06.404Z,100481.06
2022-08-20T10:32:14.952Z,100479.34
2022-08-20T10:35:16.795Z,100487.63
2022-08-20T10:38:18.311Z,100478.00
2022-08-20T10:41:19.977Z,100478.16
2022-08-20T10:44:21.389Z,100470.53
2022-08-20T10:47:26.312Z,100472.38
2022-08-20T10:50:30.313Z,100460.75
2022-08-20T10:53:32.744Z,100459.25
2022-08-20T10:56:34.245Z,100452.59
2022-08-20T10:59:44.136Z,100453.03
2022-08-20T11:02:45.641Z,100448.03
2022-08-20T11:05:47.421Z,100446.75
2022-08-20T11:08:49.277Z,100444.97
2022-08-20T11:11:50.736Z,100443.06
2022-08-20T11:14:53.630Z,100441.19
2022-08-20T11:17:55.450Z,100437.09
2022-08-20T11:20:57.242Z,100439.44
2022-08-20T11:24:02.589Z,100434.31
2022-08-20T11:27:08.178Z,100433.19
2022-08-20T11:30:12.440Z,100434.53
2022-08-20T11:33:13.867Z,100436.41
2022-08-20T11:36:15.296Z,100439.22
2022-08-20T11:39:16.867Z,100439.06
2022-08-20T11:42:20.366Z,100435.41
2022-08-20T11:45:22.077Z,100438.00
2022-08-20T11:48:23.903Z,100439.22
2022-08-20T11:51:25.610Z,100436.44
2022-08-20T11:54:31.688Z,100443.47
2022-08-20T11:57:35.319Z,100437.25
2022-08-20T12:00:37.048Z,100431.13
2022-08-20T12:03:38.795Z,100429.03
2022-08-20T12:06:40.263Z,100423.34
2022-08-20T12:09:50.319Z,100419.75
2022-08-20T12:12:52.520Z,100422.28
2022-08-20T12:15:54.903Z,100419.13
2022-08-20T12:18:56.316Z,100417.91
2022-08-20T12:21:57.748Z,100413.72
2022-08-20T12:24:59.176Z,100413.06
2022-08-20T12:28:00.694Z,100416.00
2022-08-20T12:31:02.169Z,100401.00
2022-08-20T12:34:03.595Z,100400.44
2022-08-20T12:37:15.748Z,100402.28
2022-08-20T12:40:31.962Z,100393.53
2022-08-20T12:43:34.118Z,100398.72
2022-08-20T12:46:35.550Z,100392.09
2022-08-20T12:49:38.071Z,100396.44
2022-08-20T12:52:40.233Z,100382.88
2022-08-20T12:55:41.695Z,100392.28
2022-08-20T12:58:43.151Z,100401.84
2022-08-20T13:01:44.821Z,100391.81
2022-08-20T13:04:46.341Z,100389.78
2022-08-20T13:07:48.804Z,100387.94
2022-08-20T13:10:50.377Z,100385.22
2022-08-20T13:13:52.261Z,100383.50
2022-08-20T13:16:58.435Z,100375.72
2022-08-20T13:20:02.870Z,100378.06
2022-08-20T13:23:04.823Z,100369.44
2022-08-20T13:26:06.593Z,100370.72
2022-08-20T13:29:08.341Z,100355.81
2022-08-20T13:32:10.572Z,100361.13
2022-08-20T13:35:12.678Z,100361.81
2022-08-20T13:38:14.142Z,100368.94
2022-08-20T13:41:15.693Z,100364.16
2022-08-20T13:44:17.157Z,100355.22
2022-08-20T13:47:30.467Z,100364.53
2022-08-20T13:50:31.952Z,100358.91
2022-08-20T13:53:33.423Z,100365.75
2022-08-20T13:56:34.894Z,100347.22
2022-08-20T13:59:38.983Z,100344.81
2022-08-20T14:02:42.500Z,100347.22
2022-08-20T14:05:44.529Z,100337.03
2022-08-20T14:08:45.958Z,100348.59
2022-08-20T14:11:49.453Z,100350.63
2022-08-20T14:14:52.163Z,100344.13
2022-08-20T14:17:55.850Z,100349.63
2022-08-20T14:20:57.459Z,100334.06
2022-08-20T14:23:58.890Z,100349.06
2022-08-20T14:27:00.336Z,100335.28
2022-08-20T14:30:03.912Z,100340.28
2022-08-20T14:33:05.447Z,100328.66
2022-08-20T14:36:07.223Z,100340.75
2022-08-20T14:39:08.658Z,100341.53
2022-08-20T14:42:10.671Z,100341.63
2022-08-20T14:45:13.951Z,100334.34
2022-08-20T14:48:17.182Z,100345.44
2022-08-20T14:51:18.628Z,100344.22
2022-08-20T14:54:20.070Z,100337.59
2022-08-20T14:57:22.106Z,100330.13
2022-08-20T15:00:27.730Z,100319.16
2022-08-20T15:03:30.511Z,100327.50
2022-08-20T15:06:31.997Z,100330.16
2022-08-20T15:09:34.910Z,100338.16
2022-08-20T15:12:36.645Z,100328.47
2022-08-20T15:15:39.315Z,100335.22
2022-08-20T15:18:43.317Z,100325.66
2022-08-20T15:21:45.815Z,100320.22
2022-08-20T15:24:48.033Z,100317.34
2022-08-20T15:27:50.432Z,100311.06
2022-08-20T15:30:52.012Z,100306.28
2022-08-20T15:33:53.458Z,100304.34
2022-08-20T15:36:56.927Z,100314.28
2022-08-20T15:40:03.429Z,100306.63
2022-08-20T15:43:05.648Z,100312.25
2022-08-20T15:46:07.463Z,100309.03
2022-08-20T15:49:12.299Z,100301.03
2022-08-20T15:52:14.266Z,100301.53
2022-08-20T15:55:16.663Z,100308.38
2022-08-20T15:58:27.043Z,100303.38
2022-08-20T16:01:37.356Z,100308.84
2022-08-20T16:04:50.872Z,100309.34
2022-08-20T16:08:02.667Z,100307.81
2022-08-20T16:11:29.255Z,100315.97
2022-08-20T16:14:37.033Z,100312.47
2022-08-20T16:18:08.218Z,100315.75
2022-08-20T16:21:15.331Z,100320.78
2022-08-20T16:24:17.904Z,100322.25
2022-08-20T16:27:44.562Z,100327.97
2022-08-20T16:31:04.431Z,100331.75
2022-08-20T16:34:33.616Z,100339.22
2022-08-20T16:37:45.130Z,100330.97
2022-08-20T16:40:53.806Z,100331.50
2022-08-20T16:44:02.188Z,100331.94
2022-08-20T16:47:20.696Z,100329.75
2022-08-20T16:50:29.829Z,100337.34
2022-08-20T16:53:31.532Z,100332.16
2022-08-20T16:56:44.023Z,100333.78
2022-08-20T17:00:16.709Z,100332.47
2022-08-20T17:03:38.630Z,100348.00
2022-08-20T17:06:48.903Z,100347.59
2022-08-20T17:09:51.957Z,100341.03
2022-08-20T17:12:56.145Z,100335.94
2022-08-20T17:16:04.473Z,100341.38
2022-08-20T17:19:27.839Z,100340.91
2022-08-20T17:22:31.326Z,100332.41
2022-08-20T17:25:38.359Z,100337.53
2022-08-20T17:28:49.611Z,100340.59
2022-08-20T17:31:55.982Z,100344.66
2022-08-20T17:35:00.357Z,100348.75
2022-08-20T17:38:04.143Z,100345.69
2022-08-20T17:41:29.362Z,100350.75
2022-08-20T17:44:34.653Z,100345.19
2022-08-20T17:47:39.887Z,100359.28
2022-08-20T17:50:42.630Z,100367.94
2022-08-20T17:53:50.929Z,100357.22
2022-08-20T17:56:59.107Z,100362.66
2022-08-20T18:00:24.068Z,100369.38
2022-08-20T18:03:26.727Z,100370.03
2022-08-20T18:06:33.949Z,100372.06
2022-08-20T18:09:46.704Z,100372.16
2022-08-20T18:13:15.000Z,100370.84
2022-08-20T18:16:26.011Z,100369.75
2022-08-20T18:19:55.407Z,100376.63
2022-08-20T18:23:03.677Z,100377.97
2022-08-20T18:26:15.434Z,100378.63
2022-08-20T18:29:22.058Z,100387.03
2022-08-20T18:32:34.414Z,100380.09
2022-08-20T18:35:44.871Z,100387.00
2022-08-20T18:39:23.053Z,100382.84
2022-08-20T18:42:32.474Z,100387.09
2022-08-20T18:45:36.301Z,100392.41
2022-08-20T18:48:37.868Z,100394.75
2022-08-20T18:51:49.466Z,100398.59
2022-08-20T18:54:54.653Z,100405.16
2022-08-20T18:58:29.545Z,100410.25
2022-08-20T19:01:34.869Z,100412.41
2022-08-20T19:04:37.262Z,100405.69
2022-08-20T19:07:48.532Z,100414.25
2022-08-20T19:11:12.647Z,100414.94
2022-08-20T19:14:58.481Z,100430.41
2022-08-20T19:18:28.084Z,100444.66
2022-08-20T19:21:35.498Z,100440.50
2022-08-20T19:24:41.896Z,100457.28
2022-08-20T19:27:45.328Z,100457.00
2022-08-20T19:30:46.851Z,100459.28
2022-08-20T19:33:51.731Z,100458.47
2022-08-20T19:36:59.429Z,100455.44
2022-08-20T19:40:18.442Z,100465.53
2022-08-20T19:43:21.676Z,100457.28
2022-08-20T19:46:44.591Z,100464.09
2022-08-20T19:49:57.281Z,100471.06
2022-08-20T19:53:14.670Z,100476.75
2022-08-20T19:56:20.418Z,100471.78
2022-08-20T19:59:22.422Z,100470.63
2022-08-20T20:02:26.776Z,100469.50
2022-08-20T20:05:28.312Z,100473.47
2022-08-20T20:08:39.965Z,100473.78
2022-08-20T20:11:45.850Z,100467.97
2022-08-20T20:14:49.299Z,100475.75
2022-08-20T20:17:53.579Z,100475.94
2022-08-20T20:21:08.543Z,100473.50
2022-08-20T20:24:11.594Z,100477.06
2022-08-20T20:27:20.205Z,100474.63
2022-08-20T20:30:34.448Z,100472.19
2022-08-20T20:33:43.839Z,100477.94
2022-08-20T20:36:47.683Z,100476.84
2022-08-20T20:40:00.268Z,100472.84
2022-08-20T20:43:07.418Z,100476.38
2022-08-20T20:46:24.197Z,100471.69
2022-08-20T20:49:31.916Z,100475.78
2022-08-20T20:52:37.746Z,100474.63
2022-08-20T20:55:39.825Z,100463.66
2022-08-20T20:58:41.253Z,100468.09
2022-08-20T21:01:55.924Z,100472.78
2022-08-20T21:04:58.324Z,100467.34
2022-08-20T21:08:02.702Z,100471.34
2022-08-20T21:11:04.179Z,100472.78
2022-08-20T21:14:05.627Z,100472.31
2022-08-20T21:17:12.448Z,100482.75
2022-08-20T21:20:14.817Z,100480.00
2022-08-20T21:23:16.376Z,100492.56
2022-08-20T21:26:18.071Z,100489.66
2022-08-20T21:29:32.547Z,100502.03
2022-08-20T21:32:34.571Z,100494.38
2022-08-20T21:35:36.059Z,100500.84
2022-08-20T21:38:37.555Z,100494.38
2022-08-20T21:41:42.563Z,100495.97
2022-08-20T21:44:49.419Z,100491.47
2022-08-20T21:47:51.230Z,100500.72
2022-08-20T21:50:52.651Z,100506.03
2022-08-20T21:53:54.088Z,100501.88
2022-08-20T21:57:07.857Z,100506.97
2022-08-20T22:00:19.840Z,100506.25
2022-08-20T22:03:24.443Z,100511.19
2022-08-20T22:06:25.925Z,100507.50
2022-08-20T22:09:28.161Z,100510.22
2022-08-20T22:12:29.681Z,100508.66
2022-08-20T22:15:31.121Z,100507.13
2022-08-20T22:18:32.877Z,100514.34
2022-08-20T22:21:35.289Z,100507.38
2022-08-20T22:24:37.549Z,100512.75
2022-08-20T22:27:39.597Z,100512.06
2022-08-20T22:30:42.451Z,100512.06
2022-08-20T22:33:44.090Z,100511.59
2022-08-20T22:36:45.623Z,100514.78
2022-08-20T22:39:47.088Z,100523.38
2022-08-20T22:42:48.578Z,100524.25
2022-08-20T22:45:53.709Z,100521.22
2022-08-20T22:48:56.112Z,100526.59
2022-08-20T22:51:57.556Z,100518.56
2022-08-20T22:54:59.029Z,100515.13
2022-08-20T22:58:01.139Z,100520.50
2022-08-20T23:01:04.602Z,100523.19
2022-08-20T23:04:27.471Z,100527.59
2022-08-20T23:07:28.942Z,100525.28
2022-08-20T23:10:31.819Z,100521.25
2022-08-20T23:13:33.986Z,100530.53
2022-08-20T23:16:38.399Z,100533.81
2022-08-20T23:19:41.903Z,100534.38
2022-08-20T23:22:43.634Z,100533.38
2022-08-20T23:25:45.306Z,100530.97
2022-08-20T23:28:46.873Z,100524.03
2022-08-20T23:31:48.314Z,100516.50
2022-08-20T23:34:50.169Z,100526.50
2022-08-20T23:37:53.986Z,100521.13
2022-08-20T23:40:55.439Z,100517.31
2022-08-20T23:43:56.868Z,100523.78
2022-08-20T23:47:01.844Z,100519.72
2022-08-20T23:50:07.009Z,100520.50
2022-08-20T23:53:08.566Z,100520.38
2022-08-20T23:56:09.974Z,100512.44
2022-08-20T23:59:11.418Z,100515.38
